sensor_id;sensor_type;location;lat;lon;timestamp;P1;durP1;ratioP1;P2;durP2;ratioP2
5167;SDS011;2603;48.918;8.980;2023-02-28T00:01:18;7.03;;;3.60;;
5167;SDS011;2603;48.918;8.980;2023-02-28T00:03:45;6.40;;;3.20;;
5167;SDS011;2603;48.918;8.980;2023-02-28T00:06:12;5.53;;;3.33;;
5167;SDS011;2603;48.918;8.980;2023-02-28T00:08:38;6.67;;;3.80;;
5167;SDS011;2603;48.918;8.980;2023-02-28T00:11:06;6.20;;;4.20;;
5167;SDS011;2603;48.918;8.980;2023-02-28T00:13:35;9.80;;;4.03;;
5167;SDS011;2603;48.918;8.980;2023-02-28T00:16:05;6.30;;;3.60;;
5167;SDS011;2603;48.918;8.980;2023-02-28T00:18:33;6.00;;;3.60;;
5167;SDS011;2603;48.918;8.980;2023-02-28T00:20:59;5.57;;;3.60;;
5167;SDS011;2603;48.918;8.980;2023-02-28T00:23:26;7.47;;;3.93;;
5167;SDS011;2603;48.918;8.980;2023-02-28T00:25:53;5.20;;;3.17;;
5167;SDS011;2603;48.918;8.980;2023-02-28T00:28:20;6.57;;;3.47;;
5167;SDS011;2603;48.918;8.980;2023-02-28T00:30:46;5.80;;;4.10;;
5167;SDS011;2603;48.918;8.980;2023-02-28T00:33:14;6.63;;;3.67;;
5167;SDS011;2603;48.918;8.980;2023-02-28T00:35:41;8.80;;;3.87;;
5167;SDS011;2603;48.918;8.980;2023-02-28T00:38:08;6.23;;;4.40;;
5167;SDS011;2603;48.918;8.980;2023-02-28T00:40:35;6.47;;;3.70;;
5167;SDS011;2603;48.918;8.980;2023-02-28T00:43:02;6.50;;;3.70;;
5167;SDS011;2603;48.918;8.980;2023-02-28T00:45:29;5.97;;;4.30;;
5167;SDS011;2603;48.918;8.980;2023-02-28T00:47:56;7.77;;;4.03;;
5167;SDS011;2603;48.918;8.980;2023-02-28T00:50:24;7.40;;;3.97;;
5167;SDS011;2603;48.918;8.980;2023-02-28T00:52:51;7.13;;;4.40;;
5167;SDS011;2603;48.918;8.980;2023-02-28T00:55:19;7.83;;;4.80;;
5167;SDS011;2603;48.918;8.980;2023-02-28T00:57:47;8.33;;;4.63;;
5167;SDS011;2603;48.918;8.980;2023-02-28T01:00:15;7.37;;;4.60;;
5167;SDS011;2603;48.918;8.980;2023-02-28T01:02:42;12.47;;;5.27;;
5167;SDS011;2603;48.918;8.980;2023-02-28T01:05:08;9.27;;;5.17;;
5167;SDS011;2603;48.918;8.980;2023-02-28T01:07:36;6.90;;;4.33;;
5167;SDS011;2603;48.918;8.980;2023-02-28T01:10:03;6.73;;;3.97;;
5167;SDS011;2603;48.918;8.980;2023-02-28T01:12:31;9.80;;;4.40;;
5167;SDS011;2603;48.918;8.980;2023-02-28T01:14:57;12.87;;;5.73;;
5167;SDS011;2603;48.918;8.980;2023-02-28T01:17:24;9.57;;;5.20;;
5167;SDS011;2603;48.918;8.980;2023-02-28T01:19:52;8.53;;;4.67;;
5167;SDS011;2603;48.918;8.980;2023-02-28T01:22:19;12.13;;;4.60;;
5167;SDS011;2603;48.918;8.980;2023-02-28T01:24:47;7.10;;;4.50;;
5167;SDS011;2603;48.918;8.980;2023-02-28T01:27:14;5.33;;;3.67;;
5167;SDS011;2603;48.918;8.980;2023-02-28T01:29:40;9.33;;;4.13;;
5167;SDS011;2603;48.918;8.980;2023-02-28T01:32:08;6.17;;;3.90;;
5167;SDS011;2603;48.918;8.980;2023-02-28T01:34:35;8.10;;;4.07;;
5167;SDS011;2603;48.918;8.980;2023-02-28T01:37:02;7.53;;;4.70;;
5167;SDS011;2603;48.918;8.980;2023-02-28T01:39:29;9.20;;;4.67;;
5167;SDS011;2603;48.918;8.980;2023-02-28T01:41:57;6.23;;;3.60;;
5167;SDS011;2603;48.918;8.980;2023-02-28T01:47:24;7.27;;;3.77;;
5167;SDS011;2603;48.918;8.980;2023-02-28T01:49:52;9.20;;;4.60;;
5167;SDS011;2603;48.918;8.980;2023-02-28T01:52:19;11.13;;;5.07;;
5167;SDS011;2603;48.918;8.980;2023-02-28T01:54:47;5.00;;;3.80;;
5167;SDS011;2603;48.918;8.980;2023-02-28T01:57:18;13.83;;;4.87;;
5167;SDS011;2603;48.918;8.980;2023-02-28T01:59:48;11.43;;;5.77;;
5167;SDS011;2603;48.918;8.980;2023-02-28T02:02:19;7.97;;;4.70;;
5167;SDS011;2603;48.918;8.980;2023-02-28T02:04:50;10.40;;;4.80;;
5167;SDS011;2603;48.918;8.980;2023-02-28T02:07:18;7.77;;;4.40;;
5167;SDS011;2603;48.918;8.980;2023-02-28T02:09:44;10.07;;;4.73;;
5167;SDS011;2603;48.918;8.980;2023-02-28T02:12:13;8.50;;;4.30;;
5167;SDS011;2603;48.918;8.980;2023-02-28T02:14:52;7.50;;;4.50;;
5167;SDS011;2603;48.918;8.980;2023-02-28T02:17:28;9.70;;;4.73;;
5167;SDS011;2603;48.918;8.980;2023-02-28T02:20:15;6.90;;;3.80;;
5167;SDS011;2603;48.918;8.980;2023-02-28T02:23:03;8.53;;;4.67;;
5167;SDS011;2603;48.918;8.980;2023-02-28T02:25:37;7.10;;;4.20;;
5167;SDS011;2603;48.918;8.980;2023-02-28T02:31:11;10.83;;;5.80;;
5167;SDS011;2603;48.918;8.980;2023-02-28T02:40:00;5.63;;;3.90;;
5167;SDS011;2603;48.918;8.980;2023-02-28T02:42:35;5.93;;;3.90;;
5167;SDS011;2603;48.918;8.980;2023-02-28T02:45:06;6.80;;;4.07;;
5167;SDS011;2603;48.918;8.980;2023-02-28T02:47:34;5.30;;;4.07;;
5167;SDS011;2603;48.918;8.980;2023-02-28T02:50:02;7.20;;;4.07;;
5167;SDS011;2603;48.918;8.980;2023-02-28T02:52:34;6.33;;;4.50;;
5167;SDS011;2603;48.918;8.980;2023-02-28T02:55:05;8.10;;;4.10;;
5167;SDS011;2603;48.918;8.980;2023-02-28T02:57:33;10.93;;;4.40;;
5167;SDS011;2603;48.918;8.980;2023-02-28T03:00:03;6.97;;;4.70;;
5167;SDS011;2603;48.918;8.980;2023-02-28T03:02:33;5.40;;;3.57;;
5167;SDS011;2603;48.918;8.980;2023-02-28T03:05:02;8.90;;;4.67;;
5167;SDS011;2603;48.918;8.980;2023-02-28T03:07:31;5.50;;;4.07;;
5167;SDS011;2603;48.918;8.980;2023-02-28T03:09:59;7.00;;;4.43;;
5167;SDS011;2603;48.918;8.980;2023-02-28T03:12:27;11.97;;;5.60;;
5167;SDS011;2603;48.918;8.980;2023-02-28T03:15:04;8.17;;;4.37;;
5167;SDS011;2603;48.918;8.980;2023-02-28T03:17:47;8.07;;;4.63;;
5167;SDS011;2603;48.918;8.980;2023-02-28T03:20:23;8.60;;;4.40;;
5167;SDS011;2603;48.918;8.980;2023-02-28T03:22:59;8.20;;;4.83;;
5167;SDS011;2603;48.918;8.980;2023-02-28T03:25:33;6.10;;;4.33;;
5167;SDS011;2603;48.918;8.980;2023-02-28T03:28:05;7.97;;;5.03;;
5167;SDS011;2603;48.918;8.980;2023-02-28T03:30:37;7.43;;;4.47;;
5167;SDS011;2603;48.918;8.980;2023-02-28T03:33:08;6.97;;;4.47;;
5167;SDS011;2603;48.918;8.980;2023-02-28T03:35:38;6.90;;;4.20;;
5167;SDS011;2603;48.918;8.980;2023-02-28T03:38:08;10.80;;;5.00;;
5167;SDS011;2603;48.918;8.980;2023-02-28T03:40:40;6.20;;;4.60;;
5167;SDS011;2603;48.918;8.980;2023-02-28T03:43:10;10.83;;;5.70;;
5167;SDS011;2603;48.918;8.980;2023-02-28T03:45:39;7.80;;;4.90;;
5167;SDS011;2603;48.918;8.980;2023-02-28T03:48:09;23.27;;;16.07;;
5167;SDS011;2603;48.918;8.980;2023-02-28T03:50:39;11.67;;;5.37;;
5167;SDS011;2603;48.918;8.980;2023-02-28T03:53:07;9.40;;;5.00;;
5167;SDS011;2603;48.918;8.980;2023-02-28T03:55:37;7.20;;;4.90;;
5167;SDS011;2603;48.918;8.980;2023-02-28T03:58:08;8.33;;;5.50;;
5167;SDS011;2603;48.918;8.980;2023-02-28T04:00:39;6.87;;;4.70;;
5167;SDS011;2603;48.918;8.980;2023-02-28T04:03:07;10.83;;;5.67;;
5167;SDS011;2603;48.918;8.980;2023-02-28T04:05:34;19.13;;;5.70;;
5167;SDS011;2603;48.918;8.980;2023-02-28T04:08:13;10.23;;;5.60;;
5167;SDS011;2603;48.918;8.980;2023-02-28T04:10:39;9.80;;;5.43;;
5167;SDS011;2603;48.918;8.980;2023-02-28T04:13:07;7.27;;;5.40;;
5167;SDS011;2603;48.918;8.980;2023-02-28T04:15:34;7.40;;;4.80;;
5167;SDS011;2603;48.918;8.980;2023-02-28T04:18:01;11.33;;;5.87;;
5167;SDS011;2603;48.918;8.980;2023-02-28T04:20:28;10.43;;;5.83;;
5167;SDS011;2603;48.918;8.980;2023-02-28T04:22:56;10.83;;;6.00;;
5167;SDS011;2603;48.918;8.980;2023-02-28T04:25:22;7.97;;;5.73;;
5167;SDS011;2603;48.918;8.980;2023-02-28T04:27:49;11.87;;;5.73;;
5167;SDS011;2603;48.918;8.980;2023-02-28T04:30:17;14.10;;;6.10;;
5167;SDS011;2603;48.918;8.980;2023-02-28T04:32:44;7.93;;;5.20;;
5167;SDS011;2603;48.918;8.980;2023-02-28T04:35:11;9.30;;;5.20;;
5167;SDS011;2603;48.918;8.980;2023-02-28T04:37:38;8.90;;;5.10;;
5167;SDS011;2603;48.918;8.980;2023-02-28T04:40:05;9.23;;;5.23;;
5167;SDS011;2603;48.918;8.980;2023-02-28T04:42:32;9.80;;;5.73;;
5167;SDS011;2603;48.918;8.980;2023-02-28T04:45:00;11.33;;;5.17;;
5167;SDS011;2603;48.918;8.980;2023-02-28T04:47:29;11.90;;;6.30;;
5167;SDS011;2603;48.918;8.980;2023-02-28T04:49:55;11.60;;;6.13;;
5167;SDS011;2603;48.918;8.980;2023-02-28T04:52:22;9.57;;;5.50;;
5167;SDS011;2603;48.918;8.980;2023-02-28T04:54:48;8.47;;;5.70;;
5167;SDS011;2603;48.918;8.980;2023-02-28T04:57:15;8.70;;;5.27;;
5167;SDS011;2603;48.918;8.980;2023-02-28T04:59:42;7.37;;;5.13;;
5167;SDS011;2603;48.918;8.980;2023-02-28T05:02:09;8.80;;;4.90;;
5167;SDS011;2603;48.918;8.980;2023-02-28T05:04:37;7.30;;;5.00;;
5167;SDS011;2603;48.918;8.980;2023-02-28T05:07:03;6.73;;;4.90;;
5167;SDS011;2603;48.918;8.980;2023-02-28T05:09:30;9.00;;;6.30;;
5167;SDS011;2603;48.918;8.980;2023-02-28T05:11:58;10.60;;;5.63;;
5167;SDS011;2603;48.918;8.980;2023-02-28T05:14:24;10.03;;;6.33;;
5167;SDS011;2603;48.918;8.980;2023-02-28T05:16:51;9.47;;;6.23;;
5167;SDS011;2603;48.918;8.980;2023-02-28T05:19:17;14.13;;;6.13;;
5167;SDS011;2603;48.918;8.980;2023-02-28T05:21:49;10.63;;;6.00;;
5167;SDS011;2603;48.918;8.980;2023-02-28T05:24:18;8.17;;;5.30;;
5167;SDS011;2603;48.918;8.980;2023-02-28T05:26:48;10.93;;;5.23;;
5167;SDS011;2603;48.918;8.980;2023-02-28T05:29:15;10.80;;;6.70;;
5167;SDS011;2603;48.918;8.980;2023-02-28T05:31:41;12.57;;;6.60;;
5167;SDS011;2603;48.918;8.980;2023-02-28T05:34:08;8.90;;;5.80;;
5167;SDS011;2603;48.918;8.980;2023-02-28T05:36:36;9.33;;;6.50;;
5167;SDS011;2603;48.918;8.980;2023-02-28T05:39:04;10.70;;;6.27;;
5167;SDS011;2603;48.918;8.980;2023-02-28T05:41:32;12.67;;;6.03;;
5167;SDS011;2603;48.918;8.980;2023-02-28T05:43:59;7.17;;;4.90;;
5167;SDS011;2603;48.918;8.980;2023-02-28T05:46:26;9.00;;;5.50;;
5167;SDS011;2603;48.918;8.980;2023-02-28T05:48:53;9.83;;;6.40;;
5167;SDS011;2603;48.918;8.980;2023-02-28T05:51:20;8.57;;;5.90;;
5167;SDS011;2603;48.918;8.980;2023-02-28T05:53:47;13.37;;;4.97;;
5167;SDS011;2603;48.918;8.980;2023-02-28T05:56:15;9.20;;;5.87;;
5167;SDS011;2603;48.918;8.980;2023-02-28T05:58:42;6.70;;;5.00;;
5167;SDS011;2603;48.918;8.980;2023-02-28T06:01:22;9.47;;;5.97;;
5167;SDS011;2603;48.918;8.980;2023-02-28T06:03:50;10.27;;;5.80;;
5167;SDS011;2603;48.918;8.980;2023-02-28T06:06:17;9.80;;;5.57;;
5167;SDS011;2603;48.918;8.980;2023-02-28T06:08:44;10.57;;;6.70;;
5167;SDS011;2603;48.918;8.980;2023-02-28T06:11:10;9.53;;;5.57;;
5167;SDS011;2603;48.918;8.980;2023-02-28T06:13:38;10.40;;;5.90;;
5167;SDS011;2603;48.918;8.980;2023-02-28T06:16:05;12.17;;;6.50;;
5167;SDS011;2603;48.918;8.980;2023-02-28T06:18:33;15.00;;;8.50;;
5167;SDS011;2603;48.918;8.980;2023-02-28T06:20:59;12.17;;;6.67;;
5167;SDS011;2603;48.918;8.980;2023-02-28T06:23:26;10.83;;;5.27;;
5167;SDS011;2603;48.918;8.980;2023-02-28T06:25:52;12.50;;;6.60;;
5167;SDS011;2603;48.918;8.980;2023-02-28T06:28:23;8.60;;;5.67;;
5167;SDS011;2603;48.918;8.980;2023-02-28T06:30:51;9.37;;;5.60;;
5167;SDS011;2603;48.918;8.980;2023-02-28T06:33:18;11.10;;;5.87;;
5167;SDS011;2603;48.918;8.980;2023-02-28T06:35:46;8.37;;;5.70;;
5167;SDS011;2603;48.918;8.980;2023-02-28T06:38:13;12.87;;;6.20;;
5167;SDS011;2603;48.918;8.980;2023-02-28T06:40:39;8.20;;;5.70;;
5167;SDS011;2603;48.918;8.980;2023-02-28T06:43:06;9.80;;;5.50;;
5167;SDS011;2603;48.918;8.980;2023-02-28T06:45:33;11.03;;;5.77;;
5167;SDS011;2603;48.918;8.980;2023-02-28T06:48:01;10.87;;;5.77;;
5167;SDS011;2603;48.918;8.980;2023-02-28T06:50:27;7.50;;;5.83;;
5167;SDS011;2603;48.918;8.980;2023-02-28T06:52:56;9.67;;;6.40;;
5167;SDS011;2603;48.918;8.980;2023-02-28T06:55:22;16.80;;;8.00;;
5167;SDS011;2603;48.918;8.980;2023-02-28T06:57:49;9.07;;;5.53;;
5167;SDS011;2603;48.918;8.980;2023-02-28T07:00:16;11.93;;;6.40;;
5167;SDS011;2603;48.918;8.980;2023-02-28T07:02:43;12.13;;;6.70;;
5167;SDS011;2603;48.918;8.980;2023-02-28T07:05:11;14.97;;;5.60;;
5167;SDS011;2603;48.918;8.980;2023-02-28T07:07:38;11.97;;;6.00;;
5167;SDS011;2603;48.918;8.980;2023-02-28T07:10:09;15.17;;;6.57;;
5167;SDS011;2603;48.918;8.980;2023-02-28T07:12:36;15.07;;;5.87;;
5167;SDS011;2603;48.918;8.980;2023-02-28T07:15:03;13.13;;;6.30;;
5167;SDS011;2603;48.918;8.980;2023-02-28T07:17:31;13.07;;;6.43;;
5167;SDS011;2603;48.918;8.980;2023-02-28T07:19:57;9.27;;;5.40;;
5167;SDS011;2603;48.918;8.980;2023-02-28T07:22:25;11.87;;;6.27;;
5167;SDS011;2603;48.918;8.980;2023-02-28T07:24:53;9.90;;;5.73;;
5167;SDS011;2603;48.918;8.980;2023-02-28T07:27:20;8.50;;;6.03;;
5167;SDS011;2603;48.918;8.980;2023-02-28T07:29:50;12.17;;;6.33;;
5167;SDS011;2603;48.918;8.980;2023-02-28T07:32:17;17.33;;;8.70;;
5167;SDS011;2603;48.918;8.980;2023-02-28T07:34:44;26.30;;;10.27;;
5167;SDS011;2603;48.918;8.980;2023-02-28T07:37:11;11.30;;;6.67;;
5167;SDS011;2603;48.918;8.980;2023-02-28T07:39:39;9.43;;;6.53;;
5167;SDS011;2603;48.918;8.980;2023-02-28T07:42:07;17.43;;;8.57;;
5167;SDS011;2603;48.918;8.980;2023-02-28T07:44:35;24.83;;;12.77;;
5167;SDS011;2603;48.918;8.980;2023-02-28T07:47:05;16.23;;;8.87;;
5167;SDS011;2603;48.918;8.980;2023-02-28T07:49:32;12.90;;;7.80;;
5167;SDS011;2603;48.918;8.980;2023-02-28T07:51:59;18.27;;;7.57;;
5167;SDS011;2603;48.918;8.980;2023-02-28T07:54:25;13.60;;;8.33;;
5167;SDS011;2603;48.918;8.980;2023-02-28T07:56:53;13.23;;;7.70;;
5167;SDS011;2603;48.918;8.980;2023-02-28T07:59:20;12.53;;;7.00;;
5167;SDS011;2603;48.918;8.980;2023-02-28T08:01:46;10.53;;;6.53;;
5167;SDS011;2603;48.918;8.980;2023-02-28T08:04:15;10.53;;;6.90;;
5167;SDS011;2603;48.918;8.980;2023-02-28T08:06:41;13.07;;;7.27;;
5167;SDS011;2603;48.918;8.980;2023-02-28T08:09:08;11.70;;;7.20;;
5167;SDS011;2603;48.918;8.980;2023-02-28T08:11:36;17.17;;;8.33;;
5167;SDS011;2603;48.918;8.980;2023-02-28T08:14:03;16.07;;;7.60;;
5167;SDS011;2603;48.918;8.980;2023-02-28T08:16:30;12.77;;;6.33;;
5167;SDS011;2603;48.918;8.980;2023-02-28T08:18:57;25.67;;;7.70;;
5167;SDS011;2603;48.918;8.980;2023-02-28T08:21:24;12.90;;;7.27;;
5167;SDS011;2603;48.918;8.980;2023-02-28T08:23:50;14.53;;;7.97;;
5167;SDS011;2603;48.918;8.980;2023-02-28T08:26:17;12.97;;;7.33;;
5167;SDS011;2603;48.918;8.980;2023-02-28T08:28:44;12.47;;;7.50;;
5167;SDS011;2603;48.918;8.980;2023-02-28T08:31:13;13.20;;;7.40;;
5167;SDS011;2603;48.918;8.980;2023-02-28T08:33:41;12.23;;;7.27;;
5167;SDS011;2603;48.918;8.980;2023-02-28T08:36:09;14.43;;;7.67;;
5167;SDS011;2603;48.918;8.980;2023-02-28T08:38:36;19.00;;;8.90;;
5167;SDS011;2603;48.918;8.980;2023-02-28T08:41:04;16.37;;;7.77;;
5167;SDS011;2603;48.918;8.980;2023-02-28T08:43:32;14.23;;;8.37;;
5167;SDS011;2603;48.918;8.980;2023-02-28T08:45:59;14.33;;;8.13;;
5167;SDS011;2603;48.918;8.980;2023-02-28T08:48:28;13.60;;;7.70;;
5167;SDS011;2603;48.918;8.980;2023-02-28T08:50:56;17.97;;;7.97;;
5167;SDS011;2603;48.918;8.980;2023-02-28T08:53:23;13.13;;;7.50;;
5167;SDS011;2603;48.918;8.980;2023-02-28T08:55:55;12.80;;;7.33;;
5167;SDS011;2603;48.918;8.980;2023-02-28T08:58:22;18.13;;;8.20;;
5167;SDS011;2603;48.918;8.980;2023-02-28T09:00:49;14.63;;;8.00;;
5167;SDS011;2603;48.918;8.980;2023-02-28T09:03:16;13.77;;;7.90;;
5167;SDS011;2603;48.918;8.980;2023-02-28T09:05:52;17.63;;;8.10;;
5167;SDS011;2603;48.918;8.980;2023-02-28T09:08:20;12.43;;;7.53;;
5167;SDS011;2603;48.918;8.980;2023-02-28T09:10:46;13.73;;;7.30;;
5167;SDS011;2603;48.918;8.980;2023-02-28T09:13:14;16.60;;;8.40;;
5167;SDS011;2603;48.918;8.980;2023-02-28T09:15:40;13.00;;;7.23;;
5167;SDS011;2603;48.918;8.980;2023-02-28T09:18:07;15.60;;;7.63;;
5167;SDS011;2603;48.918;8.980;2023-02-28T09:20:36;12.90;;;8.10;;
5167;SDS011;2603;48.918;8.980;2023-02-28T09:23:05;14.67;;;8.33;;
5167;SDS011;2603;48.918;8.980;2023-02-28T09:25:31;11.50;;;7.50;;
5167;SDS011;2603;48.918;8.980;2023-02-28T09:27:58;15.27;;;8.20;;
5167;SDS011;2603;48.918;8.980;2023-02-28T09:30:25;17.03;;;9.20;;
5167;SDS011;2603;48.918;8.980;2023-02-28T09:32:51;12.90;;;7.87;;
5167;SDS011;2603;48.918;8.980;2023-02-28T09:35:18;17.37;;;11.37;;
5167;SDS011;2603;48.918;8.980;2023-02-28T09:37:46;19.90;;;8.50;;
5167;SDS011;2603;48.918;8.980;2023-02-28T09:40:14;47.07;;;23.70;;
5167;SDS011;2603;48.918;8.980;2023-02-28T09:42:44;12.77;;;8.00;;
5167;SDS011;2603;48.918;8.980;2023-02-28T09:45:13;16.30;;;7.90;;
5167;SDS011;2603;48.918;8.980;2023-02-28T09:47:45;14.43;;;8.40;;
5167;SDS011;2603;48.918;8.980;2023-02-28T09:50:16;23.00;;;10.47;;
5167;SDS011;2603;48.918;8.980;2023-02-28T09:52:45;16.03;;;8.83;;
5167;SDS011;2603;48.918;8.980;2023-02-28T09:55:18;11.77;;;8.13;;
5167;SDS011;2603;48.918;8.980;2023-02-28T09:57:47;13.07;;;8.33;;
5167;SDS011;2603;48.918;8.980;2023-02-28T10:00:18;16.37;;;8.87;;
5167;SDS011;2603;48.918;8.980;2023-02-28T10:02:54;18.60;;;9.77;;
5167;SDS011;2603;48.918;8.980;2023-02-28T10:05:28;11.73;;;8.13;;
5167;SDS011;2603;48.918;8.980;2023-02-28T10:08:00;13.90;;;8.03;;
5167;SDS011;2603;48.918;8.980;2023-02-28T10:10:34;11.97;;;8.00;;
5167;SDS011;2603;48.918;8.980;2023-02-28T10:13:05;15.20;;;9.03;;
5167;SDS011;2603;48.918;8.980;2023-02-28T10:15:33;12.40;;;7.80;;
5167;SDS011;2603;48.918;8.980;2023-02-28T10:18:01;14.40;;;9.27;;
5167;SDS011;2603;48.918;8.980;2023-02-28T10:20:29;12.90;;;8.50;;
5167;SDS011;2603;48.918;8.980;2023-02-28T10:23:00;12.67;;;8.67;;
5167;SDS011;2603;48.918;8.980;2023-02-28T10:25:34;15.37;;;8.93;;
5167;SDS011;2603;48.918;8.980;2023-02-28T10:28:05;11.37;;;7.93;;
5167;SDS011;2603;48.918;8.980;2023-02-28T10:30:36;16.43;;;9.57;;
5167;SDS011;2603;48.918;8.980;2023-02-28T10:33:05;17.70;;;10.43;;
5167;SDS011;2603;48.918;8.980;2023-02-28T10:35:32;15.70;;;9.60;;
5167;SDS011;2603;48.918;8.980;2023-02-28T10:37:59;21.00;;;10.47;;
5167;SDS011;2603;48.918;8.980;2023-02-28T10:40:31;20.17;;;10.77;;
5167;SDS011;2603;48.918;8.980;2023-02-28T10:43:02;15.77;;;10.93;;
5167;SDS011;2603;48.918;8.980;2023-02-28T10:45:31;16.10;;;9.13;;
5167;SDS011;2603;48.918;8.980;2023-02-28T10:48:00;15.13;;;8.70;;
5167;SDS011;2603;48.918;8.980;2023-02-28T10:50:31;15.40;;;9.90;;
5167;SDS011;2603;48.918;8.980;2023-02-28T10:55:59;13.40;;;8.80;;
5167;SDS011;2603;48.918;8.980;2023-02-28T10:58:29;15.63;;;10.00;;
5167;SDS011;2603;48.918;8.980;2023-02-28T11:00:57;12.67;;;8.63;;
5167;SDS011;2603;48.918;8.980;2023-02-28T11:03:28;16.33;;;9.17;;
5167;SDS011;2603;48.918;8.980;2023-02-28T11:05:56;15.80;;;9.10;;
5167;SDS011;2603;48.918;8.980;2023-02-28T11:08:23;20.90;;;9.60;;
5167;SDS011;2603;48.918;8.980;2023-02-28T11:10:53;14.50;;;9.07;;
5167;SDS011;2603;48.918;8.980;2023-02-28T11:13:21;16.13;;;8.73;;
5167;SDS011;2603;48.918;8.980;2023-02-28T11:15:54;17.17;;;8.90;;
5167;SDS011;2603;48.918;8.980;2023-02-28T11:18:23;13.90;;;8.67;;
5167;SDS011;2603;48.918;8.980;2023-02-28T11:20:52;16.00;;;8.00;;
5167;SDS011;2603;48.918;8.980;2023-02-28T11:23:20;14.97;;;8.90;;
5167;SDS011;2603;48.918;8.980;2023-02-28T11:25:47;19.33;;;10.30;;
5167;SDS011;2603;48.918;8.980;2023-02-28T11:28:23;17.80;;;9.70;;
5167;SDS011;2603;48.918;8.980;2023-02-28T11:31:01;14.40;;;8.33;;
5167;SDS011;2603;48.918;8.980;2023-02-28T11:33:30;11.83;;;8.00;;
5167;SDS011;2603;48.918;8.980;2023-02-28T11:36:01;17.73;;;8.87;;
5167;SDS011;2603;48.918;8.980;2023-02-28T11:38:29;16.33;;;9.20;;
5167;SDS011;2603;48.918;8.980;2023-02-28T11:44:01;14.40;;;9.40;;
5167;SDS011;2603;48.918;8.980;2023-02-28T11:46:37;12.60;;;7.60;;
5167;SDS011;2603;48.918;8.980;2023-02-28T11:49:12;19.70;;;11.77;;
5167;SDS011;2603;48.918;8.980;2023-02-28T11:51:47;15.30;;;10.20;;
5167;SDS011;2603;48.918;8.980;2023-02-28T11:54:21;14.80;;;9.63;;
5167;SDS011;2603;48.918;8.980;2023-02-28T11:56:53;11.60;;;8.37;;
5167;SDS011;2603;48.918;8.980;2023-02-28T11:59:27;13.50;;;8.63;;
5167;SDS011;2603;48.918;8.980;2023-02-28T12:02:05;14.57;;;8.20;;
5167;SDS011;2603;48.918;8.980;2023-02-28T12:04:47;14.83;;;9.10;;
5167;SDS011;2603;48.918;8.980;2023-02-28T12:07:26;11.80;;;7.83;;
5167;SDS011;2603;48.918;8.980;2023-02-28T12:09:59;21.03;;;8.90;;
5167;SDS011;2603;48.918;8.980;2023-02-28T12:12:34;12.70;;;8.17;;
5167;SDS011;2603;48.918;8.980;2023-02-28T12:15:23;14.90;;;8.40;;
5167;SDS011;2603;48.918;8.980;2023-02-28T12:18:02;14.40;;;8.37;;
5167;SDS011;2603;48.918;8.980;2023-02-28T12:20:40;14.90;;;8.70;;
5167;SDS011;2603;48.918;8.980;2023-02-28T12:23:19;13.50;;;8.20;;
5167;SDS011;2603;48.918;8.980;2023-02-28T12:25:54;13.10;;;8.60;;
5167;SDS011;2603;48.918;8.980;2023-02-28T12:28:27;13.00;;;8.00;;
5167;SDS011;2603;48.918;8.980;2023-02-28T12:30:58;12.70;;;7.90;;
5167;SDS011;2603;48.918;8.980;2023-02-28T12:33:28;13.30;;;8.37;;
5167;SDS011;2603;48.918;8.980;2023-02-28T12:36:00;13.33;;;7.93;;
5167;SDS011;2603;48.918;8.980;2023-02-28T12:38:34;10.20;;;7.40;;
5167;SDS011;2603;48.918;8.980;2023-02-28T12:41:03;14.70;;;9.23;;
5167;SDS011;2603;48.918;8.980;2023-02-28T12:43:33;13.20;;;8.30;;
5167;SDS011;2603;48.918;8.980;2023-02-28T12:46:02;17.43;;;8.20;;
5167;SDS011;2603;48.918;8.980;2023-02-28T12:48:37;12.73;;;7.90;;
5167;SDS011;2603;48.918;8.980;2023-02-28T12:51:05;11.57;;;7.60;;
5167;SDS011;2603;48.918;8.980;2023-02-28T12:53:35;14.57;;;8.83;;
5167;SDS011;2603;48.918;8.980;2023-02-28T12:56:13;13.47;;;8.63;;
5167;SDS011;2603;48.918;8.980;2023-02-28T12:58:45;13.17;;;7.90;;
5167;SDS011;2603;48.918;8.980;2023-02-28T13:04:30;21.73;;;8.23;;
5167;SDS011;2603;48.918;8.980;2023-02-28T13:07:29;15.07;;;9.10;;
5167;SDS011;2603;48.918;8.980;2023-02-28T13:10:12;11.83;;;8.37;;
5167;SDS011;2603;48.918;8.980;2023-02-28T13:12:46;14.40;;;8.43;;
5167;SDS011;2603;48.918;8.980;2023-02-28T13:15:16;14.97;;;8.30;;
5167;SDS011;2603;48.918;8.980;2023-02-28T13:17:48;14.50;;;7.87;;
5167;SDS011;2603;48.918;8.980;2023-02-28T13:20:19;14.03;;;8.33;;
5167;SDS011;2603;48.918;8.980;2023-02-28T13:22:47;10.60;;;7.10;;
5167;SDS011;2603;48.918;8.980;2023-02-28T13:31:25;15.47;;;8.50;;
5167;SDS011;2603;48.918;8.980;2023-02-28T13:34:04;12.23;;;7.63;;
5167;SDS011;2603;48.918;8.980;2023-02-28T13:36:33;16.87;;;9.20;;
5167;SDS011;2603;48.918;8.980;2023-02-28T13:39:00;12.40;;;8.70;;
5167;SDS011;2603;48.918;8.980;2023-02-28T13:41:44;13.70;;;7.77;;
5167;SDS011;2603;48.918;8.980;2023-02-28T13:44:13;13.30;;;7.90;;
5167;SDS011;2603;48.918;8.980;2023-02-28T13:49:47;14.43;;;7.83;;
5167;SDS011;2603;48.918;8.980;2023-02-28T13:52:17;13.07;;;7.80;;
5167;SDS011;2603;48.918;8.980;2023-02-28T13:54:51;10.70;;;7.40;;
5167;SDS011;2603;48.918;8.980;2023-02-28T13:57:26;13.50;;;7.67;;
5167;SDS011;2603;48.918;8.980;2023-02-28T14:00:02;13.70;;;8.20;;
5167;SDS011;2603;48.918;8.980;2023-02-28T14:02:48;12.97;;;8.80;;
5167;SDS011;2603;48.918;8.980;2023-02-28T14:05:21;13.60;;;8.50;;
5167;SDS011;2603;48.918;8.980;2023-02-28T14:07:53;14.20;;;9.43;;
5167;SDS011;2603;48.918;8.980;2023-02-28T14:10:23;14.50;;;8.57;;
5167;SDS011;2603;48.918;8.980;2023-02-28T14:12:56;13.80;;;8.60;;
5167;SDS011;2603;48.918;8.980;2023-02-28T14:15:26;13.60;;;8.70;;
5167;SDS011;2603;48.918;8.980;2023-02-28T14:18:01;17.37;;;8.17;;
5167;SDS011;2603;48.918;8.980;2023-02-28T14:20:31;11.60;;;7.60;;
5167;SDS011;2603;48.918;8.980;2023-02-28T14:23:02;18.20;;;10.23;;
5167;SDS011;2603;48.918;8.980;2023-02-28T14:25:33;13.70;;;8.23;;
5167;SDS011;2603;48.918;8.980;2023-02-28T14:28:09;15.13;;;9.30;;
5167;SDS011;2603;48.918;8.980;2023-02-28T14:30:43;14.50;;;8.70;;
5167;SDS011;2603;48.918;8.980;2023-02-28T14:33:26;15.40;;;9.27;;
5167;SDS011;2603;48.918;8.980;2023-02-28T14:36:00;12.80;;;8.70;;
5167;SDS011;2603;48.918;8.980;2023-02-28T14:38:32;15.60;;;9.60;;
5167;SDS011;2603;48.918;8.980;2023-02-28T14:41:03;14.47;;;9.10;;
5167;SDS011;2603;48.918;8.980;2023-02-28T14:43:32;14.77;;;9.70;;
5167;SDS011;2603;48.918;8.980;2023-02-28T14:45:59;12.93;;;7.57;;
5167;SDS011;2603;48.918;8.980;2023-02-28T14:48:26;13.67;;;9.27;;
5167;SDS011;2603;48.918;8.980;2023-02-28T14:50:54;15.03;;;9.03;;
5167;SDS011;2603;48.918;8.980;2023-02-28T14:53:22;14.53;;;9.80;;
5167;SDS011;2603;48.918;8.980;2023-02-28T14:55:52;12.23;;;8.47;;
5167;SDS011;2603;48.918;8.980;2023-02-28T14:58:23;15.60;;;9.07;;
5167;SDS011;2603;48.918;8.980;2023-02-28T15:00:52;20.40;;;9.80;;
5167;SDS011;2603;48.918;8.980;2023-02-28T15:03:20;13.97;;;9.27;;
5167;SDS011;2603;48.918;8.980;2023-02-28T15:05:52;15.50;;;7.77;;
5167;SDS011;2603;48.918;8.980;2023-02-28T15:08:19;13.50;;;8.73;;
5167;SDS011;2603;48.918;8.980;2023-02-28T15:10:50;14.47;;;8.40;;
5167;SDS011;2603;48.918;8.980;2023-02-28T15:13:19;13.03;;;8.60;;
5167;SDS011;2603;48.918;8.980;2023-02-28T15:15:47;16.57;;;10.13;;
5167;SDS011;2603;48.918;8.980;2023-02-28T15:18:22;22.40;;;10.33;;
5167;SDS011;2603;48.918;8.980;2023-02-28T15:20:52;10.30;;;7.63;;
5167;SDS011;2603;48.918;8.980;2023-02-28T15:23:20;13.50;;;8.87;;
5167;SDS011;2603;48.918;8.980;2023-02-28T15:25:47;13.03;;;9.10;;
5167;SDS011;2603;48.918;8.980;2023-02-28T15:28:17;14.20;;;9.23;;
5167;SDS011;2603;48.918;8.980;2023-02-28T15:30:56;14.37;;;9.00;;
5167;SDS011;2603;48.918;8.980;2023-02-28T15:33:25;15.10;;;9.03;;
5167;SDS011;2603;48.918;8.980;2023-02-28T15:36:03;16.30;;;8.50;;
5167;SDS011;2603;48.918;8.980;2023-02-28T15:38:36;23.57;;;11.33;;
5167;SDS011;2603;48.918;8.980;2023-02-28T15:41:03;15.60;;;9.50;;
5167;SDS011;2603;48.918;8.980;2023-02-28T15:43:35;16.80;;;8.93;;
5167;SDS011;2603;48.918;8.980;2023-02-28T15:46:03;14.33;;;9.23;;
5167;SDS011;2603;48.918;8.980;2023-02-28T15:48:32;15.30;;;9.60;;
5167;SDS011;2603;48.918;8.980;2023-02-28T15:51:02;13.37;;;10.17;;